Croswell, Michigan
Current Conditions -  °F | °C
As of 12:00 AM on Monday 20 Oct 2014 (Local Time) from CYZR Reporting Station
Overcast Overcast  
Wind Chill: 41°   Ceiling: 11000
Heat Index: 45°   Visibility: 9mi
Dew Point: 37°   Wind: 6mph
Humidity: 76%   Direction: 170°S
Pressure: 29.97"   Gusts: NA
Location:  43.28°N, 82.62°W
Report Text: CYZR 200400Z AUTO 17005KT 9SM OVC110 07/03 A2997 RMK SLP153
Loading
Personal Weather Stations






























Interactive Weather Map
Tropical Storm Tracking
New forecast layout! Learn more

10-Day Weather Forecast

Advertisements
Track Severe Weather on mobile